Terminal Aerodrome Forecast
Issued by NWS Portland, OR

Home | Current Version | Previous Version | Text Only | Print | Product List | Glossary On
Versions: 1 2 3 4 5 6 7 8 9 10 11 12 13 14 15 16 17 18 19 20 21 22 23 24 25 26 27 28 29 30 31 32 33 34 35 36 37 38 39 40 41 42
000
FTUS46 KPQR 011720
TAFEUG
TAF
KEUG 011720Z 0118/0218 03004KT 1SM BR VV002
     FM011900 04005KT P6SM FEW030
     FM020400 00000KT P6SM SKC
     FM020700 00000KT 1SM BR SKC
     FM021100 00000KT 1/2SM FG VV002=

USA.gov is the U.S. government's official web portal to all federal, state and local government web resources and services.